sensor_id;sensor_type;location;lat;lon;timestamp;P1;durP1;ratioP1;P2;durP2;ratioP2
71821;SDS011;64096;52.548;13.406;2023-11-18T06:03:32;5.68;;;3.85;;
71821;SDS011;64096;52.548;13.406;2023-11-18T06:05:58;5.45;;;3.80;;
71821;SDS011;64096;52.548;13.406;2023-11-18T06:08:24;5.45;;;3.88;;
71821;SDS011;64096;52.548;13.406;2023-11-18T06:10:50;5.40;;;3.70;;
71821;SDS011;64096;52.548;13.406;2023-11-18T06:13:21;6.50;;;3.72;;
71821;SDS011;64096;52.548;13.406;2023-11-18T06:15:47;6.05;;;3.95;;
71821;SDS011;64096;52.548;13.406;2023-11-18T06:18:16;5.57;;;4.13;;
71821;SDS011;64096;52.548;13.406;2023-11-18T06:20:43;6.28;;;3.83;;
71821;SDS011;64096;52.548;13.406;2023-11-18T06:23:09;6.05;;;4.15;;
71821;SDS011;64096;52.548;13.406;2023-11-18T06:25:35;6.40;;;4.35;;
71821;SDS011;64096;52.548;13.406;2023-11-18T06:28:01;6.63;;;4.60;;
71821;SDS011;64096;52.548;13.406;2023-11-18T06:30:27;6.60;;;4.70;;
71821;SDS011;64096;52.548;13.406;2023-11-18T06:32:53;6.22;;;4.70;;
71821;SDS011;64096;52.548;13.406;2023-11-18T06:35:19;5.15;;;4.03;;
71821;SDS011;64096;52.548;13.406;2023-11-18T06:37:46;8.25;;;5.10;;
71821;SDS011;64096;52.548;13.406;2023-11-18T06:40:12;7.55;;;5.15;;
71821;SDS011;64096;52.548;13.406;2023-11-18T06:42:43;6.60;;;4.63;;
71821;SDS011;64096;52.548;13.406;2023-11-18T06:45:12;5.32;;;4.22;;
71821;SDS011;64096;52.548;13.406;2023-11-18T06:47:38;6.60;;;4.90;;
71821;SDS011;64096;52.548;13.406;2023-11-18T06:50:09;5.85;;;4.50;;
71821;SDS011;64096;52.548;13.406;2023-11-18T06:52:40;7.03;;;4.47;;
71821;SDS011;64096;52.548;13.406;2023-11-18T06:55:07;7.13;;;4.60;;
71821;SDS011;64096;52.548;13.406;2023-11-18T06:57:33;7.07;;;5.00;;
71821;SDS011;64096;52.548;13.406;2023-11-18T06:59:59;7.20;;;5.05;;
71821;SDS011;64096;52.548;13.406;2023-11-18T07:02:25;6.85;;;4.93;;
71821;SDS011;64096;52.548;13.406;2023-11-18T07:04:51;7.03;;;4.63;;
71821;SDS011;64096;52.548;13.406;2023-11-18T07:07:17;6.53;;;4.47;;
71821;SDS011;64096;52.548;13.406;2023-11-18T07:09:43;6.47;;;4.43;;
71821;SDS011;64096;52.548;13.406;2023-11-18T07:12:09;6.20;;;4.60;;
71821;SDS011;64096;52.548;13.406;2023-11-18T07:14:35;6.70;;;4.78;;
71821;SDS011;64096;52.548;13.406;2023-11-18T07:17:02;8.02;;;5.30;;
71821;SDS011;64096;52.548;13.406;2023-11-18T07:19:29;6.10;;;4.47;;
71821;SDS011;64096;52.548;13.406;2023-11-18T07:21:58;6.57;;;4.82;;
71821;SDS011;64096;52.548;13.406;2023-11-18T07:24:24;6.90;;;4.57;;
71821;SDS011;64096;52.548;13.406;2023-11-18T07:26:50;7.32;;;4.63;;
71821;SDS011;64096;52.548;13.406;2023-11-18T07:29:16;6.80;;;5.00;;
71821;SDS011;64096;52.548;13.406;2023-11-18T07:31:43;6.00;;;4.55;;
71821;SDS011;64096;52.548;13.406;2023-11-18T07:34:10;6.57;;;4.85;;
71821;SDS011;64096;52.548;13.406;2023-11-18T07:36:36;5.95;;;4.25;;
71821;SDS011;64096;52.548;13.406;2023-11-18T07:39:02;6.32;;;4.68;;
71821;SDS011;64096;52.548;13.406;2023-11-18T07:41:30;6.95;;;5.35;;
71821;SDS011;64096;52.548;13.406;2023-11-18T07:43:56;6.68;;;5.10;;
71821;SDS011;64096;52.548;13.406;2023-11-18T07:46:22;9.02;;;6.93;;
71821;SDS011;64096;52.548;13.406;2023-11-18T07:48:52;8.18;;;5.60;;
71821;SDS011;64096;52.548;13.406;2023-11-18T07:51:19;7.20;;;5.32;;
71821;SDS011;64096;52.548;13.406;2023-11-18T07:53:49;6.93;;;4.93;;
71821;SDS011;64096;52.548;13.406;2023-11-18T07:56:18;8.52;;;5.93;;
71821;SDS011;64096;52.548;13.406;2023-11-18T07:58:47;7.60;;;5.63;;
71821;SDS011;64096;52.548;13.406;2023-11-18T08:01:13;7.30;;;5.35;;
71821;SDS011;64096;52.548;13.406;2023-11-18T08:03:43;7.40;;;4.93;;
71821;SDS011;64096;52.548;13.406;2023-11-18T08:06:10;7.78;;;5.20;;
71821;SDS011;64096;52.548;13.406;2023-11-18T08:08:37;7.35;;;5.07;;
71821;SDS011;64096;52.548;13.406;2023-11-18T08:11:04;7.13;;;5.45;;
71821;SDS011;64096;52.548;13.406;2023-11-18T08:13:30;7.55;;;5.43;;
71821;SDS011;64096;52.548;13.406;2023-11-18T08:15:56;9.90;;;6.15;;
71821;SDS011;64096;52.548;13.406;2023-11-18T08:18:25;8.65;;;5.78;;
71821;SDS011;64096;52.548;13.406;2023-11-18T08:20:52;8.35;;;5.85;;
71821;SDS011;64096;52.548;13.406;2023-11-18T08:23:18;7.82;;;5.45;;
71821;SDS011;64096;52.548;13.406;2023-11-18T08:25:44;6.88;;;5.18;;
71821;SDS011;64096;52.548;13.406;2023-11-18T08:28:11;7.82;;;5.68;;
71821;SDS011;64096;52.548;13.406;2023-11-18T08:30:39;7.43;;;5.50;;
71821;SDS011;64096;52.548;13.406;2023-11-18T08:33:05;8.35;;;5.78;;
71821;SDS011;64096;52.548;13.406;2023-11-18T08:35:34;7.45;;;5.35;;
71821;SDS011;64096;52.548;13.406;2023-11-18T08:38:00;7.78;;;5.93;;
71821;SDS011;64096;52.548;13.406;2023-11-18T08:40:28;7.32;;;4.63;;
71821;SDS011;64096;52.548;13.406;2023-11-18T08:42:54;7.53;;;5.70;;
71821;SDS011;64096;52.548;13.406;2023-11-18T08:45:22;7.82;;;5.75;;
71821;SDS011;64096;52.548;13.406;2023-11-18T08:47:52;8.18;;;5.63;;
71821;SDS011;64096;52.548;13.406;2023-11-18T08:50:18;6.82;;;4.85;;
71821;SDS011;64096;52.548;13.406;2023-11-18T08:52:48;8.38;;;6.40;;
71821;SDS011;64096;52.548;13.406;2023-11-18T08:55:19;7.55;;;5.38;;
71821;SDS011;64096;52.548;13.406;2023-11-18T08:57:49;7.13;;;5.20;;
71821;SDS011;64096;52.548;13.406;2023-11-18T09:00:27;8.30;;;4.85;;
71821;SDS011;64096;52.548;13.406;2023-11-18T09:03:12;7.63;;;4.85;;
71821;SDS011;64096;52.548;13.406;2023-11-18T09:06:00;5.38;;;4.00;;
71821;SDS011;64096;52.548;13.406;2023-11-18T09:11:03;7.35;;;5.07;;
71821;SDS011;64096;52.548;13.406;2023-11-18T09:13:33;7.05;;;5.13;;
71821;SDS011;64096;52.548;13.406;2023-11-18T09:16:00;6.85;;;4.75;;
71821;SDS011;64096;52.548;13.406;2023-11-18T09:18:33;6.85;;;4.63;;
71821;SDS011;64096;52.548;13.406;2023-11-18T09:21:00;6.38;;;4.47;;
71821;SDS011;64096;52.548;13.406;2023-11-18T09:23:28;7.10;;;5.30;;
71821;SDS011;64096;52.548;13.406;2023-11-18T09:25:54;10.00;;;5.75;;
71821;SDS011;64096;52.548;13.406;2023-11-18T09:28:21;8.38;;;5.70;;
71821;SDS011;64096;52.548;13.406;2023-11-18T09:30:49;8.05;;;5.40;;
71821;SDS011;64096;52.548;13.406;2023-11-18T09:33:21;9.38;;;5.07;;
71821;SDS011;64096;52.548;13.406;2023-11-18T09:36:14;6.85;;;4.60;;
71821;SDS011;64096;52.548;13.406;2023-11-18T09:38:41;6.10;;;4.32;;
71821;SDS011;64096;52.548;13.406;2023-11-18T09:41:09;5.47;;;4.22;;
71821;SDS011;64096;52.548;13.406;2023-11-18T09:43:39;5.28;;;3.80;;
71821;SDS011;64096;52.548;13.406;2023-11-18T09:46:16;5.75;;;4.13;;
71821;SDS011;64096;52.548;13.406;2023-11-18T09:48:47;6.35;;;4.40;;
71821;SDS011;64096;52.548;13.406;2023-11-18T09:51:21;5.93;;;3.83;;
71821;SDS011;64096;52.548;13.406;2023-11-18T09:53:48;6.45;;;4.47;;
71821;SDS011;64096;52.548;13.406;2023-11-18T09:56:20;7.70;;;5.13;;
71821;SDS011;64096;52.548;13.406;2023-11-18T09:59:01;6.72;;;4.47;;
71821;SDS011;64096;52.548;13.406;2023-11-18T10:01:32;6.85;;;4.55;;
71821;SDS011;64096;52.548;13.406;2023-11-18T10:04:01;6.22;;;4.20;;
71821;SDS011;64096;52.548;13.406;2023-11-18T10:06:31;6.20;;;4.38;;
71821;SDS011;64096;52.548;13.406;2023-11-18T10:08:59;5.75;;;4.00;;
71821;SDS011;64096;52.548;13.406;2023-11-18T10:11:40;5.90;;;4.20;;
71821;SDS011;64096;52.548;13.406;2023-11-18T10:14:06;6.38;;;4.50;;
71821;SDS011;64096;52.548;13.406;2023-11-18T10:16:33;5.70;;;3.80;;
71821;SDS011;64096;52.548;13.406;2023-11-18T10:19:00;6.47;;;4.10;;
71821;SDS011;64096;52.548;13.406;2023-11-18T10:21:36;5.88;;;3.90;;
71821;SDS011;64096;52.548;13.406;2023-11-18T10:24:05;6.80;;;4.72;;
71821;SDS011;64096;52.548;13.406;2023-11-18T10:26:42;5.57;;;4.00;;
71821;SDS011;64096;52.548;13.406;2023-11-18T10:29:13;6.10;;;3.90;;
71821;SDS011;64096;52.548;13.406;2023-11-18T10:31:43;5.22;;;3.63;;
71821;SDS011;64096;52.548;13.406;2023-11-18T10:34:13;5.68;;;3.90;;
71821;SDS011;64096;52.548;13.406;2023-11-18T10:36:44;4.85;;;3.35;;
71821;SDS011;64096;52.548;13.406;2023-11-18T10:39:27;5.78;;;3.63;;
71821;SDS011;64096;52.548;13.406;2023-11-18T10:41:58;5.97;;;4.28;;
71821;SDS011;64096;52.548;13.406;2023-11-18T10:44:25;5.03;;;3.50;;
71821;SDS011;64096;52.548;13.406;2023-11-18T10:46:51;4.40;;;3.13;;
71821;SDS011;64096;52.548;13.406;2023-11-18T10:49:18;5.70;;;3.58;;
71821;SDS011;64096;52.548;13.406;2023-11-18T10:51:44;4.57;;;2.97;;
71821;SDS011;64096;52.548;13.406;2023-11-18T10:54:12;4.65;;;2.88;;
71821;SDS011;64096;52.548;13.406;2023-11-18T10:56:48;5.65;;;2.97;;
71821;SDS011;64096;52.548;13.406;2023-11-18T10:59:15;4.45;;;2.70;;
71821;SDS011;64096;52.548;13.406;2023-11-18T11:01:43;4.18;;;2.53;;
71821;SDS011;64096;52.548;13.406;2023-11-18T11:04:10;5.53;;;3.35;;
71821;SDS011;64096;52.548;13.406;2023-11-18T11:06:45;4.50;;;3.08;;
71821;SDS011;64096;52.548;13.406;2023-11-18T11:09:20;5.28;;;3.58;;
71821;SDS011;64096;52.548;13.406;2023-11-18T11:11:53;4.70;;;3.20;;
71821;SDS011;64096;52.548;13.406;2023-11-18T11:14:23;5.32;;;3.35;;
71821;SDS011;64096;52.548;13.406;2023-11-18T11:16:54;4.82;;;3.08;;
71821;SDS011;64096;52.548;13.406;2023-11-18T11:19:30;4.60;;;3.05;;
71821;SDS011;64096;52.548;13.406;2023-11-18T11:22:09;4.97;;;3.40;;
71821;SDS011;64096;52.548;13.406;2023-11-18T11:27:37;5.60;;;3.72;;
71821;SDS011;64096;52.548;13.406;2023-11-18T11:30:08;5.90;;;3.30;;
71821;SDS011;64096;52.548;13.406;2023-11-18T11:32:38;5.55;;;4.18;;
71821;SDS011;64096;52.548;13.406;2023-11-18T11:35:07;6.03;;;4.38;;
71821;SDS011;64096;52.548;13.406;2023-11-18T11:37:42;6.28;;;4.40;;
71821;SDS011;64096;52.548;13.406;2023-11-18T11:40:10;6.50;;;4.10;;
71821;SDS011;64096;52.548;13.406;2023-11-18T11:42:37;5.88;;;4.13;;
71821;SDS011;64096;52.548;13.406;2023-11-18T11:45:05;6.53;;;4.15;;
71821;SDS011;64096;52.548;13.406;2023-11-18T11:47:45;6.47;;;4.55;;
71821;SDS011;64096;52.548;13.406;2023-11-18T11:50:22;6.72;;;4.70;;
71821;SDS011;64096;52.548;13.406;2023-11-18T11:52:58;7.25;;;4.97;;
71821;SDS011;64096;52.548;13.406;2023-11-18T11:55:40;7.53;;;5.50;;
71821;SDS011;64096;52.548;13.406;2023-11-18T12:00:56;6.85;;;5.03;;
71821;SDS011;64096;52.548;13.406;2023-11-18T12:03:24;7.15;;;4.95;;
71821;SDS011;64096;52.548;13.406;2023-11-18T12:05:54;7.20;;;5.03;;
71821;SDS011;64096;52.548;13.406;2023-11-18T12:08:24;6.82;;;4.75;;
71821;SDS011;64096;52.548;13.406;2023-11-18T12:10:51;7.03;;;5.00;;
71821;SDS011;64096;52.548;13.406;2023-11-18T12:13:17;6.05;;;4.50;;
71821;SDS011;64096;52.548;13.406;2023-11-18T12:15:50;6.90;;;4.95;;
71821;SDS011;64096;52.548;13.406;2023-11-18T12:18:22;7.25;;;5.25;;
71821;SDS011;64096;52.548;13.406;2023-11-18T12:20:49;7.82;;;5.30;;
71821;SDS011;64096;52.548;13.406;2023-11-18T12:23:27;7.15;;;4.78;;
71821;SDS011;64096;52.548;13.406;2023-11-18T12:25:54;5.50;;;4.22;;
71821;SDS011;64096;52.548;13.406;2023-11-18T12:30:51;6.15;;;4.20;;
71821;SDS011;64096;52.548;13.406;2023-11-18T12:33:20;6.28;;;4.20;;
71821;SDS011;64096;52.548;13.406;2023-11-18T12:41:35;6.13;;;3.72;;
71821;SDS011;64096;52.548;13.406;2023-11-18T12:44:28;5.63;;;3.85;;
71821;SDS011;64096;52.548;13.406;2023-11-18T12:47:00;5.47;;;3.83;;
71821;SDS011;64096;52.548;13.406;2023-11-18T12:49:42;5.40;;;3.83;;
71821;SDS011;64096;52.548;13.406;2023-11-18T12:52:09;6.50;;;4.00;;
71821;SDS011;64096;52.548;13.406;2023-11-18T12:54:36;6.05;;;3.97;;
71821;SDS011;64096;52.548;13.406;2023-11-18T12:57:03;5.75;;;4.03;;
71821;SDS011;64096;52.548;13.406;2023-11-18T12:59:35;5.97;;;3.83;;
71821;SDS011;64096;52.548;13.406;2023-11-18T13:02:05;6.28;;;4.20;;
71821;SDS011;64096;52.548;13.406;2023-11-18T13:04:32;7.25;;;4.38;;
71821;SDS011;64096;52.548;13.406;2023-11-18T13:06:59;6.10;;;3.80;;
71821;SDS011;64096;52.548;13.406;2023-11-18T13:09:25;4.85;;;3.05;;
71821;SDS011;64096;52.548;13.406;2023-11-18T13:12:00;5.60;;;3.50;;
71821;SDS011;64096;52.548;13.406;2023-11-18T13:14:31;5.10;;;3.35;;
71821;SDS011;64096;52.548;13.406;2023-11-18T13:17:13;5.63;;;3.22;;
71821;SDS011;64096;52.548;13.406;2023-11-18T13:19:43;5.78;;;3.88;;
71821;SDS011;64096;52.548;13.406;2023-11-18T13:22:10;5.68;;;3.97;;
71821;SDS011;64096;52.548;13.406;2023-11-18T13:24:38;6.40;;;4.55;;
71821;SDS011;64096;52.548;13.406;2023-11-18T13:27:13;7.22;;;4.72;;
71821;SDS011;64096;52.548;13.406;2023-11-18T13:29:43;8.30;;;4.93;;
71821;SDS011;64096;52.548;13.406;2023-11-18T13:32:10;6.82;;;4.80;;
71821;SDS011;64096;52.548;13.406;2023-11-18T13:34:37;6.68;;;4.47;;
71821;SDS011;64096;52.548;13.406;2023-11-18T13:37:07;7.65;;;4.68;;
71821;SDS011;64096;52.548;13.406;2023-11-18T13:39:33;6.57;;;3.88;;
71821;SDS011;64096;52.548;13.406;2023-11-18T13:42:17;7.18;;;4.78;;
71821;SDS011;64096;52.548;13.406;2023-11-18T13:44:44;6.85;;;4.72;;
71821;SDS011;64096;52.548;13.406;2023-11-18T13:47:11;6.68;;;4.53;;
71821;SDS011;64096;52.548;13.406;2023-11-18T13:49:38;7.00;;;4.80;;
71821;SDS011;64096;52.548;13.406;2023-11-18T13:52:05;6.72;;;3.85;;
71821;SDS011;64096;52.548;13.406;2023-11-18T13:54:34;7.22;;;4.50;;
71821;SDS011;64096;52.548;13.406;2023-11-18T13:57:01;6.75;;;4.32;;
71821;SDS011;64096;52.548;13.406;2023-11-18T13:59:28;5.72;;;3.85;;
